メインページ
METAR-TAF:

METAR-TAF

空港 :

ボゴタ, コロンビア

エルドラド国際空港

緯度: 04-43N, 経度: 074-09W, 海抜: 2547m

現時点の気象観測

当レポートは26分前の21:00(UTC)に作成
南西の風 10kt
気温 17°C
湿度 77%
気圧 1022 hPa
視程10km以上
高度2000ftの千切れ雲あり

METAR: SKBO 202100Z 23010KT 9999 BKN020 17/13 A3019

時間: 16:26 (21:26 UTC)

予報

当レポートは4時間26分前の17:00(UTC)に作成
予報は20日の 18時(UTC)から 21日の 18時(UTC)まで有効
南東の風 10kt
視程10km以上
高度2000ftの雲は散在している
高度9000ftの千切れ雲あり
20日の 21時(UTC)から 20日の 23時(UTC)まで一時的に
西/南西の風 7kt
視程: 8000m
高度1700ftの雲は散在している, 塔状積雲.
霧雨, 雨
21日の 02時(UTC)から 21日の 03時(UTC)まで徐々に
変向風 2kt
高度2000ftの雲はほとんどない
高度10000ftの雲は散在している
21日の 09時(UTC)から 21日の 12時(UTC)まで一時的に
視程: 6000m
近辺で霧
21日の 14時(UTC)から 21日の 16時(UTC)まで徐々に
の風 8kt

TAF: SKBO 201700Z 2018/2118 14010KT 9999 SCT020 BKN090 TEMPO 2021/2023 24007KT 8000 DZRA SCT017TCU BECMG 2102/2103 VRB02KT FEW020 SCT100 TEMPO 2109/2112 6000 VCFG BECMG 2114/2116 09008KT TX22/2018Z TN07/2111Z

4,000以上の空港の気象観測と天気予報(METAR報とTAF報)

利用可能な観測所は地図上に黄色い丸と赤い丸で示す。

丸の上にカーソルを重ねると観測所名を参照できる。

次にクリックすると気象観測と天気予報を参照できる。

マップの切り替え:黒色「×」印の緑ボタンをクリックして拡大、「-」印の緑ボタンをクリックして縮小、緑色の三角印をクリックして隣りの地図に切り替え


METAR-TAF: